Time;durP1;ratioP1;P1;durP2;ratioP2;P2;SDS_P1;SDS_P2;PMS_P1;PMS_P2;Temp;Humidity;BMP_temperature;BMP_pressure;BME280_temperature;BME280_humidity;BME280_pressure;Samples;Min_cycle;Max_cycle;Signal;HPM_P1;HPM_P2
2022/06/11 00:01:47;;;;;;;3.53;2.83;;;;;;;19.15;78.71;101613.03;5074902;28;20448;-68
2022/06/11 00:04:16;;;;;;;2.73;2.30;;;;;;;19.14;78.45;101625.16;5074396;28;20947;-69
2022/06/11 00:06:46;;;;;;;7.13;3.80;;;;;;;19.11;78.93;101621.13;5074261;28;20524;-70
2022/06/11 00:09:15;;;;;;;2.60;2.40;;;;;;;19.11;78.46;101628.56;5075149;28;20520;-71
2022/06/11 00:11:42;;;;;;;3.73;2.67;;;;;;;19.10;78.51;101629.72;5074496;28;20544;-71
2022/06/11 00:14:10;;;;;;;5.00;3.50;;;;;;;19.13;78.63;101618.06;5074119;28;20951;-71
2022/06/11 00:16:37;;;;;;;2.97;2.60;;;;;;;19.12;78.92;101630.19;5074484;28;20449;-72
2022/06/11 00:19:06;;;;;;;4.87;2.60;;;;;;;19.13;79.71;101627.13;5074153;28;20988;-70
2022/06/11 00:21:36;;;;;;;3.50;2.70;;;;;;;19.10;79.76;101624.22;5099758;22;20558;-74
2022/06/11 00:24:02;;;;;;;5.57;3.30;;;;;;;19.07;80.02;101622.94;5074164;28;20524;-74
2022/06/11 00:26:30;;;;;;;3.23;2.50;;;;;;;19.07;80.50;101631.19;5073779;28;20441;-74
2022/06/11 00:28:57;;;;;;;7.00;3.40;;;;;;;19.07;80.42;101627.63;5074067;28;20472;-74
2022/06/11 00:31:25;;;;;;;4.50;3.00;;;;;;;19.03;80.18;101622.00;5073631;28;20465;-74
2022/06/11 00:33:51;;;;;;;3.23;2.73;;;;;;;19.02;80.34;101623.13;5073999;28;20858;-74
2022/06/11 00:36:19;;;;;;;4.13;3.53;;;;;;;19.00;80.57;101624.63;5073963;28;20521;-74
2022/06/11 00:38:47;;;;;;;4.13;3.07;;;;;;;18.95;80.77;101624.78;5073505;28;20484;-74
2022/06/11 00:41:15;;;;;;;2.93;2.13;;;;;;;18.93;80.49;101624.34;5073764;28;20465;-74
2022/06/11 00:43:44;;;;;;;3.87;3.00;;;;;;;18.90;80.36;101621.13;5073836;28;20535;-74
2022/06/11 00:46:37;;;;;;;2.57;2.37;;;;;;;18.86;80.42;101625.66;5073476;28;20897;-74
2022/06/11 00:49:07;;;;;;;4.80;3.40;;;;;;;18.82;80.81;101630.22;5073404;28;20437;-74
2022/06/11 00:51:34;;;;;;;4.37;2.87;;;;;;;18.80;81.27;101623.44;5073474;28;20469;-74
2022/06/11 00:54:04;;;;;;;6.27;3.27;;;;;;;18.78;81.96;101622.97;5073703;28;20445;-74
2022/06/11 00:56:35;;;;;;;2.90;2.50;;;;;;;18.75;81.30;101616.19;5073679;28;20429;-74
2022/06/11 00:59:07;;;;;;;4.53;2.57;;;;;;;18.74;81.05;101611.84;5073565;28;20810;-74
2022/06/11 01:01:34;;;;;;;4.10;2.80;;;;;;;18.73;81.52;101617.69;5073526;28;20907;-74
2022/06/11 01:04:04;;;;;;;5.27;3.20;;;;;;;18.69;81.67;101609.28;5073207;28;20532;-74
2022/06/11 01:06:36;;;;;;;4.30;3.13;;;;;;;18.64;81.96;101602.03;5073680;28;20446;-74
2022/06/11 01:09:09;;;;;;;3.33;3.00;;;;;;;18.61;82.60;101601.88;5073485;28;20429;-74
2022/06/11 01:11:55;;;;;;;2.93;2.60;;;;;;;18.53;82.38;101599.97;5073035;28;20449;-74
2022/06/11 01:14:38;;;;;;;4.47;3.03;;;;;;;18.50;81.56;101611.59;5073399;28;20516;-74
2022/06/11 01:17:13;;;;;;;4.90;2.80;;;;;;;18.45;82.29;101601.59;5073398;28;20849;-73
2022/06/11 01:20:02;;;;;;;3.63;2.83;;;;;;;18.40;82.69;101602.59;5072530;28;20500;-74
2022/06/11 01:22:51;;;;;;;5.33;2.80;;;;;;;18.36;82.76;101593.41;5073241;28;20817;-74
2022/06/11 01:25:28;;;;;;;4.90;2.60;;;;;;;18.30;83.10;101591.19;5073214;28;20528;-74
2022/06/11 01:28:09;;;;;;;4.13;3.13;;;;;;;18.26;83.55;101590.22;5072937;28;20432;-74
2022/06/11 01:30:46;;;;;;;4.53;2.97;;;;;;;18.22;83.39;101601.06;5072735;28;20472;-73
2022/06/11 01:33:22;;;;;;;3.63;2.87;;;;;;;18.13;82.48;101594.78;5073248;28;20509;-74
2022/06/11 01:35:58;;;;;;;4.40;3.00;;;;;;;18.10;81.89;101598.97;5072820;28;20516;-74
2022/06/11 01:38:30;;;;;;;4.63;2.83;;;;;;;18.03;82.44;101589.66;5072932;28;20508;-73
2022/06/11 01:41:14;;;;;;;2.70;2.50;;;;;;;18.03;83.08;101589.66;5072978;28;20541;-70
2022/06/11 01:43:44;;;;;;;4.47;2.83;;;;;;;17.94;83.38;101597.91;5072998;28;20888;-70
2022/06/11 01:46:17;;;;;;;12.33;3.30;;;;;;;17.86;83.28;101587.78;5073206;28;20533;-73
2022/06/11 01:48:52;;;;;;;4.00;3.10;;;;;;;17.79;83.84;101588.25;5073028;28;20483;-73
2022/06/11 01:51:28;;;;;;;4.47;3.73;;;;;;;17.76;84.49;101588.13;5072502;28;20455;-73
2022/06/11 01:54:20;;;;;;;3.13;2.50;;;;;;;17.71;84.14;101593.72;5072653;28;20951;-73
2022/06/11 01:57:21;;;;;;;5.47;3.30;;;;;;;17.64;84.56;101594.22;5072643;28;20440;-73
2022/06/11 02:00:03;;;;;;;3.20;2.67;;;;;;;17.64;84.45;101584.06;5055034;28;20507;-73
2022/06/11 02:02:43;;;;;;;5.07;4.57;;;;;;;17.61;85.35;101584.69;5072891;28;20516;-73
2022/06/11 02:05:16;;;;;;;4.80;3.30;;;;;;;17.61;84.96;101587.44;5072844;28;20468;-73
2022/06/11 02:07:50;;;;;;;5.63;3.30;;;;;;;17.60;84.85;101590.50;5072819;28;20789;-73
2022/06/11 02:10:23;;;;;;;2.97;2.67;;;;;;;17.58;84.08;101595.53;5072681;28;20472;-73
2022/06/11 02:12:55;;;;;;;6.07;3.17;;;;;;;17.52;84.20;101586.63;5072442;28;20968;-73
2022/06/11 02:15:27;;;;;;;3.30;2.83;;;;;;;17.58;84.40;101590.03;5072710;28;20433;-73
2022/06/11 02:18:00;;;;;;;3.23;2.90;;;;;;;17.55;84.78;101590.69;5072464;28;20913;-73
2022/06/11 02:20:30;;;;;;;3.20;2.77;;;;;;;17.55;85.12;101586.00;5072345;28;20489;-73
2022/06/11 02:23:02;;;;;;;4.50;3.10;;;;;;;17.56;85.04;101584.88;5072655;28;20442;-73
2022/06/11 02:25:33;;;;;;;7.63;2.63;;;;;;;17.51;85.25;101592.44;5072672;28;20521;-73
2022/06/11 02:28:05;;;;;;;5.23;2.97;;;;;;;17.53;85.34;101590.19;5072687;28;20517;-73
2022/06/11 02:30:33;;;;;;;5.00;3.47;;;;;;;17.52;84.97;101594.84;5073958;28;20843;-73
2022/06/11 02:33:02;;;;;;;4.00;3.50;;;;;;;17.51;85.47;101593.25;5076281;28;20444;-74
2022/06/11 02:35:32;;;;;;;3.43;3.00;;;;;;;17.51;85.21;101595.19;5075931;28;20528;-73
2022/06/11 02:37:59;;;;;;;4.30;3.20;;;;;;;17.53;84.75;101601.13;5076304;28;20476;-73
2022/06/11 02:40:29;;;;;;;7.43;3.90;;;;;;;17.51;85.24;101597.94;5076223;28;20484;-72
2022/06/11 02:42:56;;;;;;;4.43;2.93;;;;;;;17.50;84.88;101597.13;5076102;28;20437;-73
2022/06/11 02:45:23;;;;;;;3.27;2.97;;;;;;;17.54;84.71;101600.03;5076078;28;20532;-74
2022/06/11 02:47:52;;;;;;;5.67;3.70;;;;;;;17.54;85.24;101594.56;5075788;28;20524;-74
2022/06/11 02:50:22;;;;;;;3.60;2.83;;;;;;;17.56;84.64;101597.75;5075936;28;20457;-74
2022/06/11 02:52:49;;;;;;;5.03;3.10;;;;;;;17.58;85.01;101593.59;5076296;28;20800;-74
2022/06/11 02:55:17;;;;;;;3.83;3.10;;;;;;;17.63;85.27;101592.63;5075609;28;20484;-74
2022/06/11 02:57:44;;;;;;;6.13;3.13;;;;;;;17.64;84.27;101597.75;5075891;28;20451;-74
2022/06/11 03:00:15;;;;;;;3.60;3.00;;;;;;;17.62;82.01;101599.22;5075719;28;20487;-74
2022/06/11 03:02:41;;;;;;;3.83;2.90;;;;;;;17.60;80.46;101596.78;5076006;28;20480;-74
2022/06/11 03:05:09;;;;;;;4.70;3.27;;;;;;;17.58;80.06;101601.00;5075737;28;20532;-74
2022/06/11 03:07:37;;;;;;;3.63;3.27;;;;;;;17.52;80.94;101599.53;5075925;28;20445;-74
2022/06/11 03:10:05;;;;;;;4.20;3.00;;;;;;;17.54;82.11;101608.25;5075598;28;20592;-74
2022/06/11 03:12:32;;;;;;;3.77;2.77;;;;;;;17.56;83.28;101597.75;5075619;28;20886;-74
2022/06/11 03:14:58;;;;;;;4.20;2.87;;;;;;;17.61;83.74;101608.56;5075523;28;20479;-74
2022/06/11 03:17:25;;;;;;;5.97;2.60;;;;;;;17.60;84.23;101604.22;5075398;28;20455;-73
2022/06/11 03:19:52;;;;;;;3.10;2.57;;;;;;;17.63;84.50;101609.84;5074938;28;20481;-73
2022/06/11 03:22:19;;;;;;;3.47;3.10;;;;;;;17.69;84.79;101602.25;5075281;28;20453;-73
2022/06/11 03:24:47;;;;;;;3.43;2.80;;;;;;;17.75;85.15;101608.41;5075359;28;20528;-73
2022/06/11 03:27:15;;;;;;;3.50;3.20;;;;;;;17.79;84.77;101614.84;5075059;28;20513;-73
2022/06/11 03:29:42;;;;;;;5.87;3.77;;;;;;;17.84;84.58;101610.03;5074948;28;20828;-74
2022/06/11 03:32:09;;;;;;;3.87;3.37;;;;;;;17.85;84.86;101611.63;5075082;28;20545;-73
2022/06/11 03:34:36;;;;;;;7.93;2.80;;;;;;;17.87;85.01;101611.31;5075174;28;20452;-72
2022/06/11 03:37:03;;;;;;;4.33;3.53;;;;;;;17.93;85.05;101618.25;5074790;28;20939;-72
2022/06/11 03:39:30;;;;;;;5.03;3.37;;;;;;;17.94;85.51;101613.56;5074663;28;21001;-72
2022/06/11 03:41:58;;;;;;;3.80;3.40;;;;;;;18.00;85.80;101617.72;5074236;28;20472;-72
2022/06/11 03:44:25;;;;;;;4.27;3.30;;;;;;;18.02;85.81;101618.22;5075244;28;20434;-72
2022/06/11 03:46:52;;;;;;;4.00;3.27;;;;;;;18.05;85.28;101623.03;5074956;28;20451;-72
2022/06/11 03:49:19;;;;;;;4.10;2.83;;;;;;;18.09;85.28;101624.78;5074854;28;20545;-72
2022/06/11 03:51:47;;;;;;;4.37;3.70;;;;;;;18.13;85.03;101616.72;5074665;28;21049;-72
2022/06/11 03:54:15;;;;;;;4.50;3.60;;;;;;;18.17;85.44;101612.19;5074785;28;20520;-72
2022/06/11 03:56:46;;;;;;;8.00;3.40;;;;;;;18.20;85.13;101614.31;5074623;28;20446;-72
2022/06/11 03:59:15;;;;;;;5.00;3.20;;;;;;;18.23;85.53;101619.13;5074444;28;20421;-72
2022/06/11 04:01:43;;;;;;;4.67;3.23;;;;;;;18.25;85.99;101614.13;5074554;28;20552;-72
2022/06/11 04:04:13;;;;;;;6.37;3.10;;;;;;;18.30;85.74;101619.41;5074579;28;20532;-73
2022/06/11 04:06:43;;;;;;;3.80;2.67;;;;;;;18.34;85.56;101625.06;5074587;28;20433;-72
2022/06/11 04:09:12;;;;;;;3.40;3.10;;;;;;;18.38;85.60;101624.06;5074219;28;20900;-72
2022/06/11 04:11:39;;;;;;;3.30;2.77;;;;;;;18.42;86.07;101624.22;5074385;28;20549;-72
2022/06/11 04:14:06;;;;;;;3.80;3.30;;;;;;;18.48;86.27;101633.09;5074394;28;20449;-72
2022/06/11 04:16:38;;;;;;;4.40;3.17;;;;;;;18.53;86.20;101627.41;5074045;28;20817;-72
2022/06/11 04:19:08;;;;;;;4.37;3.17;;;;;;;18.58;85.69;101624.47;5074389;28;20531;-72
2022/06/11 04:21:37;;;;;;;3.90;3.50;;;;;;;18.64;85.47;101632.22;5073813;28;20576;-73
2022/06/11 04:24:05;;;;;;;4.17;2.77;;;;;;;18.70;85.08;101630.09;5073937;28;20447;-72
2022/06/11 04:26:36;;;;;;;4.17;3.17;;;;;;;18.73;85.17;101634.94;5074166;28;20441;-72
2022/06/11 04:29:04;;;;;;;5.20;3.43;;;;;;;18.78;85.01;101628.47;5074116;28;20516;-73
2022/06/11 04:31:31;;;;;;;3.43;3.10;;;;;;;18.84;85.74;101632.63;5074194;28;20461;-73
2022/06/11 04:34:00;;;;;;;5.20;3.17;;;;;;;18.88;85.83;101628.88;5073691;28;20436;-73
2022/06/11 04:36:30;;;;;;;3.37;3.00;;;;;;;18.93;85.91;101630.63;5073635;28;21025;-72
2022/06/11 04:38:56;;;;;;;3.10;2.47;;;;;;;18.98;85.60;101624.94;5073949;28;20790;-73
2022/06/11 04:41:24;;;;;;;3.60;3.03;;;;;;;19.03;85.38;101624.75;5073466;28;20568;-73
2022/06/11 04:43:51;;;;;;;3.80;3.00;;;;;;;19.10;85.64;101624.22;5073840;28;20874;-72
2022/06/11 04:46:18;;;;;;;3.47;2.60;;;;;;;19.16;85.70;101622.88;5073762;28;20442;-72
2022/06/11 04:48:46;;;;;;;3.60;2.90;;;;;;;19.20;85.75;101618.34;5073756;28;20543;-72
2022/06/11 04:51:15;;;;;;;3.90;3.50;;;;;;;19.24;85.53;101613.78;5073523;28;20462;-72
2022/06/11 04:53:42;;;;;;;6.00;3.17;;;;;;;19.28;84.92;101622.16;5073612;28;20445;-73
2022/06/11 04:56:10;;;;;;;3.10;2.37;;;;;;;19.31;84.62;101633.28;5073276;28;20498;-72
2022/06/11 04:58:37;;;;;;;3.87;2.57;;;;;;;19.35;85.43;101634.22;5073512;28;20442;-73
2022/06/11 05:01:04;;;;;;;4.17;2.70;;;;;;;19.40;85.10;101636.78;5073407;28;20565;-74
2022/06/11 05:03:30;;;;;;;3.83;3.43;;;;;;;19.47;83.01;101643.66;5073532;28;20512;-73
2022/06/11 05:05:57;;;;;;;3.93;3.47;;;;;;;19.52;82.67;101636.06;5073729;28;20448;-74
2022/06/11 05:08:25;;;;;;;3.80;2.70;;;;;;;19.62;83.23;101637.59;5073145;28;20930;-74
2022/06/11 05:10:52;;;;;;;4.20;2.43;;;;;;;19.73;79.27;101635.25;5073017;28;20900;-73
2022/06/11 05:13:18;;;;;;;3.80;2.67;;;;;;;19.77;75.93;101645.22;5073378;28;20548;-73
2022/06/11 05:15:57;;;;;;;4.80;2.47;;;;;;;19.80;74.21;101641.81;5073372;28;20880;-73
2022/06/11 05:18:24;;;;;;;3.00;2.70;;;;;;;19.84;74.80;101651.00;5073328;28;20479;-74
2022/06/11 05:20:51;;;;;;;3.07;2.33;;;;;;;19.91;76.50;101645.72;5072884;28;20495;-73
2022/06/11 05:23:18;;;;;;;2.70;2.20;;;;;;;19.99;74.33;101641.28;5073338;28;20528;-74
2022/06/11 05:25:47;;;;;;;3.40;2.23;;;;;;;20.12;72.46;101644.88;5073271;28;20441;-74
2022/06/11 05:28:17;;;;;;;7.60;2.93;;;;;;;20.26;73.50;101659.13;5073180;28;20532;-74
2022/06/11 05:30:44;;;;;;;4.00;3.00;;;;;;;20.37;70.39;101659.50;5073649;28;20815;-74
2022/06/11 05:33:11;;;;;;;3.30;2.57;;;;;;;20.47;69.24;101661.81;5073122;28;20433;-74
2022/06/11 05:35:38;;;;;;;2.90;2.57;;;;;;;20.57;67.95;101661.41;5072693;28;20536;-74
2022/06/11 05:38:13;;;;;;;4.27;2.20;;;;;;;20.68;67.31;101661.75;5073173;28;20455;-74
2022/06/11 05:40:42;;;;;;;2.60;2.03;;;;;;;20.75;68.49;101663.94;5072903;28;20487;-73
2022/06/11 05:43:11;;;;;;;2.33;2.10;;;;;;;20.81;68.31;101655.13;5073067;28;20446;-73
2022/06/11 05:45:43;;;;;;;3.07;2.57;;;;;;;20.85;67.93;101653.28;5073095;28;20435;-73
2022/06/11 05:48:11;;;;;;;6.00;2.53;;;;;;;20.94;68.29;101652.34;5073052;28;20509;-73
2022/06/11 05:50:41;;;;;;;2.87;2.40;;;;;;;20.99;67.80;101652.13;5072972;28;20552;-73
2022/06/11 05:53:09;;;;;;;4.03;3.03;;;;;;;21.08;65.68;101653.59;5072687;28;20532;-74
2022/06/11 05:55:39;;;;;;;3.17;2.33;;;;;;;21.13;65.20;101655.31;5072703;28;20477;-74
2022/06/11 05:58:08;;;;;;;2.40;2.03;;;;;;;21.19;65.54;101658.63;5072873;28;20965;-74
2022/06/11 06:00:37;;;;;;;2.47;2.10;;;;;;;21.23;64.95;101660.34;5072462;28;20572;-74
2022/06/11 06:03:04;;;;;;;4.80;2.00;;;;;;;21.30;64.84;101660.56;5072943;28;20472;-74
2022/06/11 06:05:32;;;;;;;3.70;2.90;;;;;;;21.31;66.07;101653.94;5074319;28;20864;-74
2022/06/11 06:07:59;;;;;;;1.70;1.50;;;;;;;21.39;63.80;101661.28;5076549;28;20524;-74
2022/06/11 06:10:26;;;;;;;2.50;2.10;;;;;;;21.44;64.06;101657.47;5076664;28;20464;-73
2022/06/11 06:12:52;;;;;;;3.30;2.03;;;;;;;21.51;64.42;101654.09;5076761;28;20437;-74
2022/06/11 06:15:22;;;;;;;6.53;1.93;;;;;;;21.60;63.62;101657.50;5076693;28;20452;-73
2022/06/11 06:17:51;;;;;;;4.07;2.40;;;;;;;21.72;65.01;101657.47;5076300;28;20943;-73
2022/06/11 06:20:30;;;;;;;3.67;2.40;;;;;;;21.84;64.19;101648.38;5076352;28;20515;-72
2022/06/11 06:22:57;;;;;;;2.60;2.10;;;;;;;21.87;62.67;101665.03;5076227;28;20426;-73
2022/06/11 06:25:23;;;;;;;3.23;2.17;;;;;;;21.96;62.87;101655.75;5076475;28;20532;-73
2022/06/11 06:27:50;;;;;;;5.63;2.40;;;;;;;21.99;63.07;101661.38;5076414;28;20441;-73
2022/06/11 06:30:16;;;;;;;3.87;2.40;;;;;;;22.08;62.13;101664.78;5076355;28;20544;-73
2022/06/11 06:32:43;;;;;;;2.57;2.17;;;;;;;22.09;62.36;101660.88;5076409;28;20468;-73
2022/06/11 06:35:11;;;;;;;2.60;2.07;;;;;;;22.14;63.46;101657.91;5076022;28;20545;-72
2022/06/11 06:37:38;;;;;;;2.83;2.23;;;;;;;22.13;64.05;101658.22;5075964;28;20440;-72
2022/06/11 06:40:06;;;;;;;11.13;2.37;;;;;;;22.24;64.12;101664.84;5075863;28;20437;-72
2022/06/11 06:42:33;;;;;;;3.03;2.33;;;;;;;22.28;62.14;101657.47;5076126;28;20439;-71
2022/06/11 06:45:00;;;;;;;3.63;2.03;;;;;;;22.28;63.25;101662.19;5076119;28;20540;-71
2022/06/11 06:47:26;;;;;;;2.70;2.20;;;;;;;22.33;62.95;101665.50;5076072;28;20451;-71
2022/06/11 06:49:54;;;;;;;2.73;1.80;;;;;;;22.36;62.16;101667.53;5075930;28;20949;-72
2022/06/11 06:52:23;;;;;;;2.10;1.90;;;;;;;22.40;61.74;101667.63;5075998;28;20445;-71
2022/06/11 06:54:50;;;;;;;2.40;2.07;;;;;;;22.49;60.24;101670.19;5076005;28;20867;-71
2022/06/11 06:57:16;;;;;;;1.90;1.73;;;;;;;22.51;61.00;101670.66;5075940;28;20476;-74
2022/06/11 06:59:43;;;;;;;3.87;2.53;;;;;;;22.55;63.97;101664.06;5075628;28;20821;-74
2022/06/11 07:02:10;;;;;;;2.93;2.53;;;;;;;22.57;60.59;101666.47;5075683;28;20572;-74
2022/06/11 07:04:37;;;;;;;4.00;1.80;;;;;;;22.63;60.13;101665.06;5075793;28;20449;-74
2022/06/11 07:07:04;;;;;;;4.13;2.13;;;;;;;22.69;59.27;101669.16;5076024;28;20495;-73
2022/06/11 07:09:32;;;;;;;2.50;1.87;;;;;;;22.77;60.26;101665.41;5075689;28;20451;-73
2022/06/11 07:11:59;;;;;;;3.00;2.03;;;;;;;22.84;58.43;101651.78;5075547;28;20472;-73
2022/06/11 07:14:26;;;;;;;3.30;1.60;;;;;;;22.93;58.94;101659.88;5075306;28;20627;-72
2022/06/11 07:16:56;;;;;;;3.20;2.23;;;;;;;23.04;58.03;101665.66;5074126;28;20445;-71
2022/06/11 07:19:28;;;;;;;2.40;1.90;;;;;;;23.09;57.03;101662.63;5075537;28;20516;-71
2022/06/11 07:22:02;;;;;;;3.60;1.60;;;;;;;23.15;57.11;101656.47;5074982;28;20577;-73
2022/06/11 07:24:36;;;;;;;2.40;1.83;;;;;;;23.21;56.35;101656.97;5075472;28;20439;-73
2022/06/11 07:27:07;;;;;;;2.03;1.80;;;;;;;23.26;56.06;101644.84;5075439;28;20426;-73
2022/06/11 07:29:38;;;;;;;10.33;1.80;;;;;;;23.21;56.64;101648.69;5075271;28;20516;-73
2022/06/11 07:32:11;;;;;;;3.23;2.20;;;;;;;23.31;56.53;101645.34;5075229;28;20461;-74
2022/06/11 07:34:38;;;;;;;4.07;1.90;;;;;;;23.32;56.30;101655.22;5075291;28;20516;-72
2022/06/11 07:37:05;;;;;;;2.33;1.90;;;;;;;23.36;56.62;101647.03;5075122;28;21022;-75
2022/06/11 07:39:33;;;;;;;1.63;1.30;;;;;;;23.38;59.58;101650.25;5074879;28;20973;-74
2022/06/11 07:42:00;;;;;;;2.07;1.40;;;;;;;23.40;57.12;101640.41;5074822;28;20481;-74
2022/06/11 07:44:27;;;;;;;2.73;2.17;;;;;;;23.44;54.39;101646.00;5074792;28;20449;-73
2022/06/11 07:46:54;;;;;;;1.93;1.67;;;;;;;23.48;55.40;101646.91;5074926;28;20521;-75
2022/06/11 07:49:20;;;;;;;7.13;1.90;;;;;;;23.49;53.64;101648.50;5074960;28;20887;-74
2022/06/11 07:51:47;;;;;;;2.57;1.67;;;;;;;23.51;54.18;101656.44;5074974;28;20560;-76
2022/06/11 07:54:14;;;;;;;2.07;1.67;;;;;;;23.57;54.32;101641.94;5075245;28;20532;-77
2022/06/11 07:56:42;;;;;;;1.57;1.40;;;;;;;23.65;53.41;101649.25;5075177;28;20476;-75
2022/06/11 07:59:09;;;;;;;2.43;1.40;;;;;;;23.73;54.05;101647.44;5074745;28;20538;-74
2022/06/11 08:01:35;;;;;;;1.93;1.73;;;;;;;23.84;53.42;101644.88;5074886;28;20580;-76
2022/06/11 08:04:02;;;;;;;2.70;1.67;;;;;;;23.98;53.59;101650.69;5074913;28;20477;-75
2022/06/11 08:06:29;;;;;;;4.20;1.83;;;;;;;24.15;54.39;101647.44;5075093;28;20528;-72
2022/06/11 08:08:55;;;;;;;1.83;1.67;;;;;;;24.25;51.97;101646.03;5074685;28;20441;-75
2022/06/11 08:11:22;;;;;;;3.43;1.40;;;;;;;24.35;51.07;101647.41;5074433;28;20549;-73
2022/06/11 08:13:50;;;;;;;2.17;1.70;;;;;;;24.45;50.25;101643.25;5074514;28;20449;-72
2022/06/11 08:16:17;;;;;;;2.10;1.50;;;;;;;24.56;50.20;101655.28;5074404;28;20550;-72
2022/06/11 08:18:45;;;;;;;11.70;1.50;;;;;;;24.53;49.67;101639.44;5074615;28;20437;-77
2022/06/11 08:21:11;;;;;;;1.73;1.20;;;;;;;24.63;50.76;101634.03;5073804;28;21024;-76
2022/06/11 08:23:39;;;;;;;5.90;1.37;;;;;;;24.69;49.11;101639.25;5074057;28;20447;-76
2022/06/11 08:26:06;;;;;;;2.00;1.50;;;;;;;24.67;50.14;101646.00;5074496;28;20464;-76
2022/06/11 08:28:32;;;;;;;4.53;1.57;;;;;;;24.74;49.81;101639.75;5073641;28;20494;-75
2022/06/11 08:31:04;;;;;;;2.10;1.33;;;;;;;24.86;51.48;101636.78;5074128;28;20469;-75
2022/06/11 08:33:32;;;;;;;1.40;1.10;;;;;;;24.98;48.43;101640.50;5073831;28;20895;-76
2022/06/11 08:35:58;;;;;;;2.47;1.30;;;;;;;25.04;48.16;101641.78;5073728;28;20509;-76
2022/06/11 08:38:25;;;;;;;2.30;1.30;;;;;;;25.04;48.85;101637.03;5073986;28;20528;-75
2022/06/11 08:40:54;;;;;;;5.07;1.43;;;;;;;25.16;48.54;101633.28;5073809;28;20543;-76
2022/06/11 08:43:27;;;;;;;2.00;1.10;;;;;;;25.26;49.63;101642.91;5073879;28;20799;-76
2022/06/11 08:45:57;;;;;;;2.10;1.40;;;;;;;25.45;51.14;101651.06;5073919;28;20441;-76
2022/06/11 08:48:34;;;;;;;4.13;1.40;;;;;;;25.53;47.98;101643.66;5073827;28;20876;-76
2022/06/11 08:51:10;;;;;;;1.67;1.20;;;;;;;25.55;49.67;101639.34;5073441;28;20555;-76
2022/06/11 08:53:39;;;;;;;1.10;1.00;;;;;;;25.55;47.99;101641.31;5073476;28;20909;-76
2022/06/11 08:56:13;;;;;;;1.20;0.90;;;;;;;25.59;48.88;101639.38;5073652;28;20434;-77
2022/06/11 08:58:50;;;;;;;1.93;1.23;;;;;;;25.61;48.61;101640.59;5073622;28;20425;-76
2022/06/11 09:01:25;;;;;;;1.57;1.13;;;;;;;25.78;48.24;101643.97;5073154;28;20499;-77
2022/06/11 09:04:06;;;;;;;7.20;1.27;;;;;;;25.84;46.81;101646.03;5073750;28;20433;-76
2022/06/11 09:07:02;;;;;;;1.93;1.10;;;;;;;25.74;45.76;101640.34;5073696;28;20425;-77
2022/06/11 09:09:44;;;;;;;1.67;1.10;;;;;;;25.61;47.65;101637.00;5073211;28;20433;-76
2022/06/11 09:12:33;;;;;;;1.37;0.97;;;;;;;25.57;48.48;101631.41;5073454;28;20497;-76
2022/06/11 09:15:17;;;;;;;4.33;1.37;;;;;;;25.74;47.70;101637.56;5073436;28;20425;-76
2022/06/11 09:18:08;;;;;;;1.87;1.20;;;;;;;25.85;46.41;101630.16;5073764;28;20436;-77
2022/06/11 09:20:48;;;;;;;2.20;1.37;;;;;;;26.03;47.19;101633.13;5073258;28;20488;-77
2022/06/11 09:23:35;;;;;;;5.10;1.40;;;;;;;26.12;46.66;101631.66;5073704;28;20477;-76
2022/06/11 09:26:16;;;;;;;1.87;1.23;;;;;;;26.12;45.41;101637.22;5073871;28;20453;-77
2022/06/11 09:28:51;;;;;;;1.87;1.23;;;;;;;26.08;44.98;101641.13;5074297;28;20433;-77
2022/06/11 09:31:24;;;;;;;1.03;0.90;;;;;;;26.12;46.88;101633.66;5073304;28;20547;-76
2022/06/11 09:33:54;;;;;;;0.80;0.60;;;;;;;26.27;44.77;101632.56;5073743;28;20521;-77
2022/06/11 09:36:30;;;;;;;1.27;1.00;;;;;;;26.41;44.61;101624.38;5073165;28;20461;-77
2022/06/11 09:39:08;;;;;;;0.90;0.73;;;;;;;26.48;47.17;101618.09;5073489;28;20433;-77
2022/06/11 09:41:47;;;;;;;1.40;1.17;;;;;;;26.66;44.73;101613.47;5072529;28;20497;-77
2022/06/11 09:44:33;;;;;;;1.10;0.90;;;;;;;26.77;43.53;101619.09;5073603;28;21015;-77
2022/06/11 09:47:06;;;;;;;1.47;0.90;;;;;;;26.84;44.69;101616.38;5072866;28;20474;-76
2022/06/11 09:49:41;;;;;;;2.23;1.37;;;;;;;26.95;47.45;101622.00;5072931;28;20922;-76
2022/06/11 09:52:16;;;;;;;1.77;0.87;;;;;;;27.03;44.14;101631.19;5073829;28;21046;-77
2022/06/11 09:54:52;;;;;;;0.90;0.80;;;;;;;26.94;44.04;101627.94;5073086;28;20421;-77
2022/06/11 09:57:32;;;;;;;1.10;0.97;;;;;;;26.77;44.92;101619.09;5073933;28;20512;-75
2022/06/11 10:00:03;;;;;;;0.97;0.87;;;;;;;26.77;43.42;101623.88;5072709;28;20886;-74
2022/06/11 10:02:36;;;;;;;1.37;0.70;;;;;;;26.72;42.28;101619.47;5072725;28;20465;-77
2022/06/11 10:05:09;;;;;;;1.13;0.90;;;;;;;26.84;43.93;101618.38;5073003;28;20432;-76
2022/06/11 10:07:43;;;;;;;1.00;0.90;;;;;;;27.01;43.33;101623.25;5073128;28;20855;-72
2022/06/11 10:10:15;;;;;;;0.87;0.80;;;;;;;27.11;42.29;101611.41;5072907;28;20432;-76
2022/06/11 10:12:47;;;;;;;1.23;1.10;;;;;;;27.07;45.48;101616.09;5073151;28;20508;-76
2022/06/11 10:15:19;;;;;;;0.83;0.60;;;;;;;27.11;45.16;101613.38;5072533;28;20431;-76
2022/06/11 10:17:54;;;;;;;1.53;1.13;;;;;;;27.33;44.76;101617.06;5072968;28;20424;-76
2022/06/11 10:20:26;;;;;;;1.10;0.60;;;;;;;27.44;41.85;101625.44;5073063;28;20551;-76
2022/06/11 10:22:58;;;;;;;1.77;0.90;;;;;;;27.51;41.42;101617.94;5073205;28;20840;-77
2022/06/11 10:25:31;;;;;;;1.07;0.70;;;;;;;27.50;41.46;101619.13;5072964;28;20517;-76
2022/06/11 10:28:03;;;;;;;1.43;0.70;;;;;;;27.37;43.17;101631.78;5072757;28;20923;-75
2022/06/11 10:30:40;;;;;;;1.37;0.80;;;;;;;27.52;40.18;101624.28;5072226;28;20552;-75
2022/06/11 10:33:16;;;;;;;2.10;1.00;;;;;;;27.66;40.73;101616.78;5072881;28;20419;-76
2022/06/11 10:35:46;;;;;;;1.70;0.87;;;;;;;27.65;41.73;101620.75;5072770;28;20430;-77
2022/06/11 10:38:27;;;;;;;2.00;0.97;;;;;;;27.69;41.42;101617.97;5073303;28;20524;-78
2022/06/11 10:40:56;;;;;;;1.37;0.83;;;;;;;27.71;41.28;101610.03;5073345;28;20471;-76
2022/06/11 10:43:29;;;;;;;0.70;0.50;;;;;;;27.81;41.42;101611.28;5072544;28;20852;-76
2022/06/11 10:45:56;;;;;;;2.30;0.70;;;;;;;27.79;42.05;101611.66;5072606;28;20499;-76
2022/06/11 10:48:24;;;;;;;2.53;1.00;;;;;;;27.73;41.01;101607.69;5073132;28;20518;-77
2022/06/11 10:50:52;;;;;;;2.20;0.80;;;;;;;27.82;41.72;101605.31;5073240;28;20548;-77
2022/06/11 10:53:24;;;;;;;2.60;1.07;;;;;;;27.76;41.44;101606.09;5076643;28;20448;-77
2022/06/11 10:55:52;;;;;;;1.73;0.77;;;;;;;27.74;41.71;101603.69;5076572;28;20427;-76
2022/06/11 10:58:27;;;;;;;2.20;0.90;;;;;;;27.51;40.10;101611.56;5076953;28;20540;-77
2022/06/11 11:00:57;;;;;;;1.20;0.77;;;;;;;27.46;40.86;101604.41;5076269;28;20452;-76
2022/06/11 11:03:31;;;;;;;2.47;0.70;;;;;;;27.41;41.49;101599.22;5075921;28;20461;-77
2022/06/11 11:06:04;;;;;;;0.90;0.70;;;;;;;27.51;42.18;101600.44;5076359;28;20508;-72
2022/06/11 11:08:34;;;;;;;1.10;0.93;;;;;;;27.49;43.29;101602.78;5075879;28;20433;-71
2022/06/11 11:11:01;;;;;;;1.17;1.00;;;;;;;27.66;41.95;101597.28;5078462;28;21049;-78
2022/06/11 11:13:35;;;;;;;2.40;0.67;;;;;;;27.82;41.37;101596.97;5077429;28;20931;-77
2022/06/11 11:16:10;;;;;;;1.87;1.00;;;;;;;28.04;40.98;101594.22;5075593;28;20430;-75
2022/06/11 11:18:43;;;;;;;1.50;0.80;;;;;;;28.13;42.07;101586.25;5075335;28;20516;-75
2022/06/11 11:21:18;;;;;;;0.97;0.70;;;;;;;28.11;40.70;101586.66;5075404;28;20465;-73
2022/06/11 11:23:49;;;;;;;1.23;0.70;;;;;;;28.65;40.70;101590.25;5075243;28;20837;-76
2022/06/11 11:26:21;;;;;;;1.10;0.80;;;;;;;28.89;39.74;101594.16;5076680;28;20433;-78
2022/06/11 11:28:56;;;;;;;0.70;0.63;;;;;;;28.85;40.31;101587.78;5077332;28;20926;-78
2022/06/11 11:31:26;;;;;;;3.53;0.83;;;;;;;28.57;39.26;101587.84;5079491;28;20557;-75
2022/06/11 11:34:03;;;;;;;1.53;0.70;;;;;;;28.25;39.62;101593.44;5076222;28;20432;-76
2022/06/11 11:36:31;;;;;;;1.17;0.80;;;;;;;28.06;40.82;101589.03;5075249;28;20864;-77
2022/06/11 11:39:24;;;;;;;1.10;0.70;;;;;;;27.85;41.52;101593.41;5075590;28;20524;-74
2022/06/11 11:42:01;;;;;;;1.23;0.87;;;;;;;27.69;41.31;101597.69;5074999;28;20465;-76